createdAt,value
2018-04-07T00:01:03.645Z,160867.73
2018-04-07T00:03:31.184Z,160861.89
2018-04-07T00:05:58.735Z,160812.28
2018-04-07T00:08:26.269Z,160839.03
2018-04-07T00:10:53.827Z,160855.98
2018-04-07T00:13:21.359Z,160796.63
2018-04-07T00:15:48.934Z,160800.52
2018-04-07T00:18:16.480Z,160818.78
2018-04-07T00:20:44.045Z,160777.02
2018-04-07T00:23:11.605Z,160786.17
2018-04-07T00:25:39.204Z,160795.27
2018-04-07T00:28:06.745Z,160775.06
2018-04-07T00:30:34.281Z,160716.31
2018-04-07T00:33:01.857Z,160730.02
2018-04-07T00:35:29.391Z,160720.22
2018-04-07T00:37:57.006Z,160731.97
2018-04-07T00:40:24.573Z,160759.38
2018-04-07T00:42:52.119Z,160720.22
2018-04-07T00:45:19.689Z,160712.42
2018-04-07T00:47:47.261Z,160709.13
2018-04-07T00:50:14.820Z,160731.31
2018-04-07T00:52:54.278Z,160694.78
2018-04-07T00:55:21.836Z,160711.13
2018-04-07T00:57:49.384Z,160709.13
2018-04-07T01:00:16.948Z,160675.23
2018-04-07T01:02:44.544Z,160705.88
2018-04-07T01:05:12.082Z,160696.08
2018-04-07T01:07:39.610Z,160688.92
2018-04-07T01:10:07.185Z,160699.38
2018-04-07T01:12:34.749Z,160684.33
2018-04-07T01:15:02.671Z,160682.38
2018-04-07T01:17:30.199Z,160681.73
2018-04-07T01:19:57.718Z,160675.88
2018-04-07T01:22:25.281Z,160692.81
2018-04-07T01:24:52.825Z,160625.59
2018-04-07T01:27:20.572Z,160625.59
2018-04-07T01:29:48.122Z,160609.95
2018-04-07T01:32:15.664Z,160590.41
2018-04-07T01:34:43.226Z,160589.75
2018-04-07T01:37:10.755Z,160608.66
2018-04-07T01:39:38.345Z,160590.41
2018-04-07T01:42:05.912Z,160613.19
2018-04-07T01:44:33.446Z,160592.36
2018-04-07T01:47:00.995Z,160593.66
2018-04-07T01:49:28.561Z,160602.80
2018-04-07T01:51:56.136Z,160589.06
2018-04-07T01:54:23.667Z,160616.50
2018-04-07T01:56:51.233Z,160611.25
2018-04-07T01:59:18.767Z,160610.59
2018-04-07T02:01:46.357Z,160576.66
2018-04-07T02:04:13.893Z,160580.61
2018-04-07T02:06:41.453Z,160590.41
2018-04-07T02:09:09.336Z,160550.58
2018-04-07T02:11:36.876Z,160538.84
2018-04-07T02:14:04.419Z,160564.27
2018-04-07T02:16:32.012Z,160536.89
2018-04-07T02:18:59.553Z,160536.23
2018-04-07T02:21:27.079Z,160538.19
2018-04-07T02:23:54.640Z,160553.88
2018-04-07T02:26:22.162Z,160549.28
2018-04-07T02:28:49.748Z,160570.17
2018-04-07T02:31:17.297Z,160531.69
2018-04-07T02:33:44.860Z,160520.59
2018-04-07T02:36:12.470Z,160508.86
2018-04-07T02:38:39.999Z,160516.70
2018-04-07T02:41:07.545Z,160545.38
2018-04-07T02:43:35.150Z,160508.86
2018-04-07T02:46:02.683Z,160495.16
2018-04-07T02:48:30.212Z,160467.73
2018-04-07T02:50:57.803Z,160515.34
2018-04-07T02:53:25.352Z,160484.72
2018-04-07T02:55:52.884Z,160469.73
2018-04-07T02:58:20.442Z,160461.89
2018-04-07T03:00:47.999Z,160439.06
2018-04-07T03:03:15.596Z,160484.06
2018-04-07T03:05:43.146Z,160487.97
2018-04-07T03:08:10.693Z,160447.55
2018-04-07T03:10:38.242Z,160432.56
2018-04-07T03:13:05.786Z,160411.03
2018-04-07T03:15:33.353Z,160466.44
2018-04-07T03:18:00.943Z,160454.69
2018-04-07T03:20:28.466Z,160443.66
2018-04-07T03:22:55.996Z,160452.75
2018-04-07T03:25:23.550Z,160475.58
2018-04-07T03:27:51.084Z,160459.94
2018-04-07T03:30:18.663Z,160480.83
2018-04-07T03:32:46.209Z,160465.78
2018-04-07T03:35:13.734Z,160444.95
2018-04-07T03:37:41.324Z,160415.58
2018-04-07T03:40:08.873Z,160407.09
2018-04-07T03:42:36.406Z,160420.83
2018-04-07T03:45:03.976Z,160443.66
2018-04-07T03:47:31.573Z,160428.61
2018-04-07T03:49:59.165Z,160424.06
2018-04-07T03:52:26.704Z,160416.88
2018-04-07T03:54:54.587Z,160383.00
2018-04-07T03:57:22.159Z,160380.36
2018-04-07T03:59:49.682Z,160399.30
2018-04-07T04:02:17.225Z,160371.27
2018-04-07T04:04:44.800Z,160354.23
2018-04-07T04:07:12.336Z,160341.20
2018-04-07T04:09:39.886Z,160374.52
2018-04-07T04:12:08.461Z,160392.09
2018-04-07T04:14:35.997Z,160336.02
2018-04-07T04:17:03.571Z,160340.56
2018-04-07T04:19:31.160Z,160332.06
2018-04-07T04:21:58.705Z,160294.25
2018-04-07T04:24:26.240Z,160303.41
2018-04-07T04:26:54.037Z,160331.42
2018-04-07T04:29:21.591Z,160362.08
2018-04-07T04:31:49.128Z,160356.84
2018-04-07T04:34:16.728Z,160355.53
2018-04-07T04:36:44.269Z,160302.75
2018-04-07T04:39:11.810Z,160311.23
2018-04-07T04:41:39.396Z,160316.44
2018-04-07T04:44:06.931Z,160276.69
2018-04-07T04:46:34.483Z,160324.92
2018-04-07T04:49:02.017Z,160336.02
2018-04-07T04:51:29.594Z,160325.56
2018-04-07T04:53:57.151Z,160269.50
2018-04-07T04:56:24.691Z,160291.66
2018-04-07T04:58:52.276Z,160261.70
2018-04-07T05:01:19.814Z,160313.84
2018-04-07T05:03:47.358Z,160268.84
2018-04-07T05:06:14.940Z,160227.80
2018-04-07T05:08:42.467Z,160274.09
2018-04-07T05:11:09.999Z,160303.41
2018-04-07T05:13:37.565Z,160301.45
2018-04-07T05:16:05.121Z,160312.53
2018-04-07T05:18:33.061Z,160377.77
2018-04-07T05:21:00.592Z,160348.39
2018-04-07T05:23:28.143Z,160377.13
2018-04-07T05:25:55.718Z,160404.48
2018-04-07T05:28:23.665Z,160414.92
2018-04-07T05:30:51.204Z,160446.91
2018-04-07T05:33:18.757Z,160455.34
2018-04-07T05:35:46.311Z,160418.17
2018-04-07T05:38:13.868Z,160457.34
2018-04-07T05:40:41.831Z,160461.89
2018-04-07T05:43:09.380Z,160495.16
2018-04-07T05:45:36.918Z,160472.97
2018-04-07T05:48:04.513Z,160529.73
2018-04-07T05:50:32.173Z,160562.97
2018-04-07T05:52:59.727Z,160515.34
2018-04-07T05:55:27.695Z,160543.44
2018-04-07T05:57:55.246Z,160632.14
2018-04-07T06:00:22.799Z,160604.09
2018-04-07T06:02:50.369Z,160639.34
2018-04-07T06:05:17.900Z,160686.97
2018-04-07T06:07:45.459Z,160823.38
2018-04-07T06:10:12.996Z,160778.31
2018-04-07T06:12:40.886Z,160742.42
2018-04-07T06:15:08.423Z,160728.72
2018-04-07T06:17:35.965Z,160881.50
2018-04-07T06:20:03.587Z,160909.55
2018-04-07T06:22:31.118Z,160891.89
2018-04-07T06:24:58.660Z,160970.94
2018-04-07T06:27:26.649Z,160898.44
2018-04-07T06:29:54.219Z,161015.41
2018-04-07T06:32:21.767Z,161095.72
2018-04-07T06:34:49.349Z,161002.30
2018-04-07T06:37:16.888Z,161015.41
2018-04-07T06:39:44.462Z,160952.62
2018-04-07T06:42:12.007Z,160993.19
2018-04-07T06:44:39.560Z,160987.23
2018-04-07T06:47:07.104Z,161095.72
2018-04-07T06:49:34.684Z,161090.52
2018-04-07T06:52:02.258Z,161160.38
2018-04-07T06:54:29.792Z,161097.03
2018-04-07T06:56:57.365Z,161082.02
2018-04-07T06:59:24.916Z,161147.97
2018-04-07T07:01:52.511Z,161153.22
2018-04-07T07:04:20.115Z,161246.03
2018-04-07T07:06:47.665Z,161217.91
2018-04-07T07:09:15.219Z,161263.66
2018-04-07T07:11:42.772Z,161328.36
2018-04-07T07:14:10.365Z,161323.14
2018-04-07T07:16:37.926Z,161300.27
2018-04-07T07:19:05.583Z,161347.33
2018-04-07T07:21:33.326Z,161421.20
2018-04-07T07:24:00.877Z,161400.92
2018-04-07T07:26:28.581Z,161502.36
2018-04-07T07:28:56.135Z,161470.91
2018-04-07T07:31:23.690Z,161446.70
2018-04-07T07:33:51.270Z,161487.28
2018-04-07T07:36:18.944Z,161512.13
2018-04-07T07:38:46.588Z,161531.77
2018-04-07T07:41:14.192Z,161567.73
2018-04-07T07:43:41.796Z,161568.39
2018-04-07T07:46:09.470Z,161687.47
2018-04-07T07:48:37.044Z,161707.06
2018-04-07T07:51:04.593Z,161698.59
2018-04-07T07:53:32.202Z,161656.69
2018-04-07T07:55:59.763Z,161734.58
2018-04-07T07:58:27.315Z,161728.02
2018-04-07T08:00:54.895Z,161817.00
2018-04-07T08:03:22.510Z,161840.56
2018-04-07T08:05:50.089Z,161884.50
2018-04-07T08:08:17.637Z,161906.75
2018-04-07T08:10:45.220Z,161898.88
2018-04-07T08:13:12.788Z,161914.58
2018-04-07T08:15:40.384Z,161947.33
2018-04-07T08:18:07.921Z,162027.89
2018-04-07T08:20:35.495Z,162046.84
2018-04-07T08:23:03.082Z,162169.33
2018-04-07T08:25:30.680Z,162087.48
2018-04-07T08:27:58.260Z,162076.34
2018-04-07T08:30:25.808Z,162167.37
2018-04-07T08:32:53.371Z,162169.97
2018-04-07T08:35:20.912Z,162208.67
2018-04-07T08:37:48.508Z,162193.56
2018-04-07T08:40:16.047Z,162241.45
2018-04-07T08:42:43.579Z,162314.83
2018-04-07T08:45:12.482Z,162295.20
2018-04-07T08:47:40.234Z,162253.25
2018-04-07T08:50:07.830Z,162347.63
2018-04-07T08:52:35.373Z,162373.83
2018-04-07T08:55:02.936Z,162382.36
2018-04-07T08:57:30.544Z,162444.62
2018-04-07T08:59:58.093Z,162500.97
2018-04-07T09:02:25.636Z,162555.41
2018-04-07T09:04:53.213Z,162499.02
2018-04-07T09:07:20.808Z,162560.64
2018-04-07T09:09:48.357Z,162577.77
2018-04-07T09:12:15.904Z,162571.84
2018-04-07T09:14:43.525Z,162562.69
2018-04-07T09:17:11.068Z,162521.31
2018-04-07T09:19:38.634Z,162553.45
2018-04-07T09:22:06.252Z,162649.25
2018-04-07T09:24:33.800Z,162592.84
2018-04-07T09:27:01.339Z,162682.66
2018-04-07T09:29:28.898Z,162720.70
2018-04-07T09:31:56.509Z,162778.44
2018-04-07T09:34:24.064Z,162798.14
2018-04-07T09:36:51.613Z,162782.41
2018-04-07T09:39:19.202Z,162815.19
2018-04-07T09:41:46.748Z,162825.03
2018-04-07T09:44:14.295Z,162914.97
2018-04-07T09:46:42.204Z,162985.20
2018-04-07T09:49:09.798Z,162868.41
2018-04-07T09:54:11.182Z,162991.13
2018-04-07T09:56:38.719Z,162909.73
2018-04-07T09:59:06.422Z,162952.38
2018-04-07T10:01:36.575Z,163070.53
2018-04-07T10:04:04.156Z,163153.97
2018-04-07T10:06:31.696Z,163117.81
2018-04-07T10:08:59.284Z,163136.17
2018-04-07T10:11:26.832Z,163100.11
2018-04-07T10:13:54.376Z,163173.69
2018-04-07T10:16:21.975Z,163188.13
2018-04-07T10:18:49.536Z,163189.44
2018-04-07T10:21:17.084Z,163287.95
2018-04-07T10:23:44.647Z,163308.33
2018-04-07T10:26:12.207Z,163299.13
2018-04-07T10:28:39.790Z,163346.41
2018-04-07T10:31:07.465Z,163414.77
2018-04-07T10:33:35.024Z,163362.16
2018-04-07T10:36:02.569Z,163400.31
2018-04-07T10:38:30.174Z,163477.83
2018-04-07T10:40:57.721Z,163407.56
2018-04-07T10:43:25.262Z,163427.23
2018-04-07T10:45:52.866Z,163440.38
2018-04-07T10:48:20.512Z,163450.91
2018-04-07T10:50:48.061Z,163421.34
2018-04-07T10:53:15.668Z,163442.34
2018-04-07T10:55:43.235Z,163491.67
2018-04-07T10:58:10.783Z,163497.56
2018-04-07T11:00:38.372Z,163540.95
2018-04-07T11:03:05.936Z,163469.31
2018-04-07T11:05:33.487Z,163607.31
2018-04-07T11:08:01.051Z,163595.48
2018-04-07T11:10:28.617Z,163608.63
2018-04-07T11:12:56.231Z,163588.23
2018-04-07T11:15:23.794Z,163694.13
2018-04-07T11:17:51.756Z,163769.08
2018-04-07T11:20:19.332Z,163702.69
2018-04-07T11:22:46.883Z,163711.20
2018-04-07T11:25:14.884Z,163673.08
2018-04-07T11:27:42.432Z,163688.25
2018-04-07T11:30:10.000Z,163730.30
2018-04-07T11:32:37.568Z,163712.56
2018-04-07T11:35:05.126Z,163763.19
2018-04-07T11:37:32.714Z,163803.28
2018-04-07T11:40:00.259Z,163659.28
2018-04-07T11:42:27.826Z,163680.98
2018-04-07T11:44:55.792Z,163708.58
2018-04-07T11:47:23.371Z,163733.56
2018-04-07T11:49:51.023Z,163742.78
2018-04-07T11:52:18.628Z,163836.83
2018-04-07T11:54:46.235Z,163918.41
2018-04-07T11:57:13.817Z,163757.89
2018-04-07T11:59:41.394Z,163882.22
2018-04-07T12:02:08.961Z,163900.66
2018-04-07T12:04:36.537Z,163892.09
2018-04-07T12:07:04.084Z,163837.48
2018-04-07T12:09:32.825Z,163959.22
2018-04-07T12:12:00.416Z,163961.19
2018-04-07T12:14:27.960Z,163863.13
2018-04-07T12:16:56.152Z,163986.83
2018-04-07T12:19:23.733Z,163926.97
2018-04-07T12:21:51.279Z,163921.72
2018-04-07T12:24:19.191Z,163885.55
2018-04-07T12:26:46.786Z,163957.91
2018-04-07T12:29:14.382Z,163953.92
2018-04-07T12:31:41.924Z,164103.25
2018-04-07T12:34:09.677Z,164074.31
2018-04-07T12:36:37.354Z,164117.17
2018-04-07T12:39:04.937Z,163936.19
2018-04-07T12:41:32.512Z,163982.23
2018-04-07T12:44:00.073Z,164013.14
2018-04-07T12:46:28.044Z,164069.73
2018-04-07T12:48:55.632Z,164153.36
2018-04-07T12:51:23.174Z,164108.59
2018-04-07T12:53:50.772Z,164183.61
2018-04-07T12:56:18.329Z,164075.63
2018-04-07T12:58:45.934Z,164084.86
2018-04-07T13:01:13.534Z,164217.19
2018-04-07T13:03:41.095Z,164273.75
2018-04-07T13:06:08.673Z,164106.63
2018-04-07T13:08:36.252Z,164127.00
2018-04-07T13:11:03.890Z,164265.23
2018-04-07T13:13:31.441Z,164156.64
2018-04-07T13:15:58.997Z,164225.70
2018-04-07T13:18:26.602Z,164159.25
2018-04-07T13:20:54.156Z,164252.73
2018-04-07T13:23:21.700Z,164283.64
2018-04-07T13:25:49.268Z,164319.19
2018-04-07T13:28:16.902Z,164297.45
2018-04-07T13:30:44.815Z,164472.02
2018-04-07T13:33:12.376Z,164279.06
2018-04-07T13:35:39.915Z,164400.91
2018-04-07T13:38:07.517Z,164453.56
2018-04-07T13:40:35.069Z,164339.67
2018-04-07T13:43:02.608Z,164386.42
2018-04-07T13:45:30.198Z,164387.08
2018-04-07T13:47:57.744Z,164389.05
2018-04-07T13:50:25.302Z,164454.88
2018-04-07T13:52:52.879Z,164466.06
2018-04-07T13:55:20.452Z,164524.03
2018-04-07T13:57:48.015Z,164468.03
2018-04-07T14:00:15.727Z,164468.69
2018-04-07T14:02:43.272Z,164444.98
2018-04-07T14:05:10.821Z,164597.19
2018-04-07T14:07:38.378Z,164645.94
2018-04-07T14:10:05.907Z,164605.06
2018-04-07T14:12:33.520Z,164678.19
2018-04-07T14:15:01.074Z,164739.52
2018-04-07T14:17:28.602Z,164769.19
2018-04-07T14:19:56.174Z,164733.59
2018-04-07T14:22:23.702Z,164632.77
2018-04-07T14:24:51.607Z,164611.69
2018-04-07T14:27:19.163Z,164662.39
2018-04-07T14:29:46.698Z,164567.53
2018-04-07T14:32:14.270Z,164591.23
2018-04-07T14:34:41.816Z,164651.84
2018-04-07T14:37:09.421Z,164687.42
2018-04-07T14:39:36.971Z,164699.94
2018-04-07T14:42:04.521Z,164639.33
2018-04-07T14:44:32.159Z,164591.23
2018-04-07T14:46:59.721Z,164686.77
2018-04-07T14:49:27.269Z,164667.69
2018-04-07T14:51:54.832Z,164717.75
2018-04-07T14:54:22.390Z,164690.70
2018-04-07T14:56:49.976Z,164632.11
2018-04-07T14:59:17.533Z,164628.78
2018-04-07T15:01:45.067Z,164610.36
2018-04-07T15:04:12.997Z,164591.23
2018-04-07T15:06:40.544Z,164559.00
2018-04-07T15:09:08.084Z,164570.20
2018-04-07T15:11:35.666Z,164584.69
2018-04-07T15:14:03.264Z,164597.19
2018-04-07T15:16:30.834Z,164562.94
2018-04-07T15:18:58.367Z,164524.03
2018-04-07T15:21:25.969Z,164554.36
2018-04-07T15:23:53.506Z,164604.41
2018-04-07T15:26:21.057Z,164649.22
2018-04-07T15:28:48.642Z,164634.73
2018-04-07T15:31:16.183Z,164582.72
2018-04-07T15:33:43.748Z,164573.47
2018-04-07T15:36:11.303Z,164581.34
2018-04-07T15:38:38.905Z,164538.56
2018-04-07T15:41:06.449Z,164557.69
2018-04-07T15:43:33.992Z,164502.30
2018-04-07T15:46:01.596Z,164549.77
2018-04-07T15:48:29.137Z,164517.42
2018-04-07T15:50:56.713Z,164493.06
2018-04-07T15:53:24.274Z,164572.81
2018-04-07T15:55:51.810Z,164492.41
2018-04-07T15:58:19.374Z,164485.19
2018-04-07T16:00:46.966Z,164487.81
2018-04-07T16:03:14.503Z,164499.02
2018-04-07T16:05:42.085Z,164506.87
2018-04-07T16:08:09.623Z,164478.58
2018-04-07T16:10:37.192Z,164464.09
2018-04-07T16:13:04.748Z,164483.88
2018-04-07T16:15:32.334Z,164458.16
2018-04-07T16:17:59.939Z,164486.50
2018-04-07T16:20:27.484Z,164438.42
2018-04-07T16:22:55.019Z,164367.97
2018-04-07T16:25:22.612Z,164444.98
2018-04-07T16:27:50.147Z,164422.64
2018-04-07T16:30:17.718Z,164363.38
2018-04-07T16:32:45.295Z,164332.41
2018-04-07T16:35:12.977Z,164336.34
2018-04-07T16:37:40.542Z,164300.78
2018-04-07T16:40:08.113Z,164315.92
2018-04-07T16:42:35.675Z,164298.12
2018-04-07T16:45:03.259Z,164316.58
2018-04-07T16:47:30.814Z,164338.36
2018-04-07T16:49:58.371Z,164320.50
2018-04-07T16:52:26.000Z,164301.44
2018-04-07T16:54:53.543Z,164282.98
2018-04-07T16:57:21.124Z,164301.44
2018-04-07T16:59:48.682Z,164309.31
2018-04-07T17:02:16.237Z,164254.70
2018-04-07T17:04:43.810Z,164234.94
2018-04-07T17:07:11.374Z,164219.16
2018-04-07T17:09:38.995Z,164155.33
2018-04-07T17:12:06.540Z,164115.16
2018-04-07T17:14:34.144Z,164094.73
2018-04-07T17:17:01.697Z,164040.75
2018-04-07T17:19:29.235Z,163998.67
2018-04-07T17:21:56.841Z,163961.83
2018-04-07T17:24:24.397Z,163932.25
2018-04-07T17:26:52.340Z,163922.38
2018-04-07T17:29:19.987Z,163880.20
2018-04-07T17:31:47.552Z,163821.66
2018-04-07T17:34:15.116Z,163799.34
2018-04-07T17:36:42.675Z,163765.80
2018-04-07T17:39:10.260Z,163732.91
2018-04-07T17:41:37.833Z,163689.55
2018-04-07T17:44:05.388Z,163665.88
2018-04-07T17:46:32.961Z,163623.08
2018-04-07T17:49:06.101Z,163586.27
2018-04-07T17:51:28.158Z,163513.97
2018-04-07T17:53:55.705Z,163520.56
2018-04-07T17:56:23.281Z,163477.83
2018-04-07T17:58:50.828Z,163408.87
2018-04-07T18:01:18.880Z,163367.41
2018-04-07T18:03:46.416Z,163329.97
2018-04-07T18:06:13.968Z,163272.84
2018-04-07T18:08:41.553Z,163224.25
2018-04-07T18:11:09.106Z,163205.84
2018-04-07T18:13:36.708Z,163151.36
2018-04-07T18:16:04.255Z,163107.95
2018-04-07T18:18:31.786Z,163052.17
2018-04-07T18:20:59.339Z,163013.41
2018-04-07T18:23:26.914Z,162989.13
2018-04-07T18:25:54.472Z,162981.28
2018-04-07T18:28:22.015Z,162948.44
2018-04-07T18:30:49.623Z,162906.47
2018-04-07T18:33:17.181Z,162933.36
2018-04-07T18:35:44.725Z,162916.97
2018-04-07T18:38:12.324Z,162840.11
2018-04-07T18:40:39.890Z,162809.30
2018-04-07T18:43:07.450Z,162746.98
2018-04-07T18:45:35.025Z,162725.33
2018-04-07T18:48:02.558Z,162820.47
2018-04-07T18:50:30.155Z,162815.19
2018-04-07T18:52:57.765Z,162857.86
2018-04-07T18:55:25.302Z,162859.86
2018-04-07T18:57:52.895Z,162783.06
2018-04-07T19:00:20.430Z,162674.17
2018-04-07T19:02:47.980Z,162738.44
2018-04-07T19:05:15.556Z,162695.12
2018-04-07T19:07:43.099Z,162709.59
2018-04-07T19:10:10.700Z,162626.95
2018-04-07T19:12:38.261Z,162602.03
2018-04-07T19:15:06.256Z,162541.66
2018-04-07T19:17:33.926Z,162531.16
2018-04-07T19:20:01.497Z,162638.09
2018-04-07T19:22:29.091Z,162654.48
2018-04-07T19:24:56.867Z,162542.95
2018-04-07T19:27:24.481Z,162528.53
2018-04-07T19:29:52.198Z,162469.53
2018-04-07T19:32:19.737Z,162466.92
2018-04-07T19:34:47.353Z,162468.88
2018-04-07T19:37:14.903Z,162480.03
2018-04-07T19:39:42.591Z,162502.98
2018-04-07T19:42:10.276Z,162512.77
2018-04-07T19:44:37.954Z,162462.95
2018-04-07T19:47:05.538Z,162645.28
2018-04-07T19:49:33.596Z,162497.05
2018-04-07T19:52:01.163Z,162522.61
2018-04-07T19:54:28.715Z,162554.11
2018-04-07T19:56:56.327Z,162470.84
2018-04-07T19:59:23.905Z,162394.16
2018-04-07T20:01:51.467Z,162366.59
2018-04-07T20:04:19.155Z,162325.33
2018-04-07T20:06:46.690Z,162297.81
2018-04-07T20:09:14.270Z,162383.66
2018-04-07T20:11:41.831Z,162327.28
2018-04-07T20:14:09.441Z,162274.88
2018-04-07T20:16:37.013Z,162265.69
2018-04-07T20:19:04.568Z,162261.78
2018-04-07T20:21:32.200Z,162288.63
2018-04-07T20:23:59.947Z,162300.42
2018-04-07T20:26:27.600Z,162235.53
2018-04-07T20:28:55.297Z,162251.28
2018-04-07T20:31:23.009Z,162219.77
2018-04-07T20:33:50.552Z,162207.97
2018-04-07T20:36:18.100Z,162185.08
2018-04-07T20:38:45.682Z,162181.13
2018-04-07T20:41:13.352Z,162175.91
2018-04-07T20:43:40.931Z,162151.66
2018-04-07T20:46:08.512Z,162147.05
2018-04-07T20:48:36.498Z,162144.44
2018-04-07T20:51:04.113Z,162244.06
2018-04-07T20:53:31.681Z,162247.38
2018-04-07T20:55:59.270Z,162238.19
2018-04-07T20:58:26.810Z,162178.52
2018-04-07T21:00:54.478Z,162156.88
2018-04-07T21:03:22.086Z,162120.20
2018-04-07T21:05:49.715Z,162076.34
2018-04-07T21:08:17.299Z,162044.89
2018-04-07T21:10:45.051Z,162046.19
2018-04-07T21:13:12.591Z,162022.63
2018-04-07T21:15:40.159Z,162001.70
2018-04-07T21:18:07.708Z,161993.17
2018-04-07T21:20:35.307Z,161996.44
2018-04-07T21:23:02.859Z,162010.19
2018-04-07T21:25:30.395Z,162001.70
2018-04-07T21:27:57.964Z,162011.48
2018-04-07T21:30:25.894Z,162012.14
2018-04-07T21:32:53.446Z,162100.58
2018-04-07T21:35:21.005Z,162105.80
2018-04-07T21:37:48.601Z,162097.92
2018-04-07T21:40:16.146Z,162132.66
2018-04-07T21:42:44.065Z,162124.16
2018-04-07T21:45:11.607Z,162074.39
2018-04-07T21:47:39.161Z,162049.47
2018-04-07T21:50:06.746Z,162140.53
2018-04-07T21:52:34.329Z,162179.16
2018-04-07T21:55:01.909Z,162185.73
2018-04-07T21:57:29.545Z,162169.97
2018-04-07T21:59:57.152Z,162136.61
2018-04-07T22:02:24.693Z,162055.38
2018-04-07T22:04:53.256Z,162082.87
2018-04-07T22:07:21.229Z,162115.64
2018-04-07T22:09:48.775Z,162106.45
2018-04-07T22:12:16.337Z,162080.92
2018-04-07T22:14:43.918Z,162054.72
2018-04-07T22:17:11.487Z,162069.78
2018-04-07T22:19:39.383Z,162115.64
2018-04-07T22:22:06.930Z,162169.97
2018-04-07T22:24:34.492Z,162233.56
2018-04-07T22:27:02.080Z,162305.00
2018-04-07T22:29:29.639Z,162301.73
2018-04-07T22:31:57.224Z,162265.69
2018-04-07T22:34:24.786Z,162253.89
2018-04-07T22:36:52.360Z,162245.41
2018-04-07T22:39:19.929Z,162243.41
2018-04-07T22:41:47.632Z,162215.20
2018-04-07T22:44:15.191Z,162214.55
2018-04-07T22:46:42.741Z,162192.92
2018-04-07T22:49:10.298Z,162095.97
2018-04-07T22:51:38.260Z,162018.06
2018-04-07T22:54:05.816Z,161961.72
2018-04-07T22:56:33.367Z,161913.28
2018-04-07T22:59:00.944Z,161984.66
2018-04-07T23:01:28.475Z,162117.59
2018-04-07T23:03:56.106Z,162055.38
2018-04-07T23:06:23.652Z,162059.30
2018-04-07T23:08:51.201Z,162016.75
2018-04-07T23:11:18.805Z,161920.50
2018-04-07T23:13:46.358Z,161915.23
2018-04-07T23:16:13.896Z,162012.14
2018-04-07T23:18:41.482Z,162045.55
2018-04-07T23:21:09.043Z,162004.97
2018-04-07T23:23:36.645Z,162027.23
2018-04-07T23:26:04.210Z,161960.42
2018-04-07T23:28:31.766Z,161891.72
2018-04-07T23:30:59.370Z,161854.31
2018-04-07T23:33:26.942Z,161856.31
2018-04-07T23:35:54.489Z,161864.12
2018-04-07T23:38:22.071Z,161847.12
2018-04-07T23:40:49.623Z,161821.61
2018-04-07T23:43:17.242Z,161797.41
2018-04-07T23:45:44.799Z,161790.83
2018-04-07T23:48:12.355Z,161784.31
2018-04-07T23:50:39.969Z,161762.70
2018-04-07T23:53:07.516Z,161760.75
2018-04-07T23:55:35.054Z,161741.75
2018-04-07T23:58:03.036Z,161778.39
